sensor_id;sensor_type;location;lat;lon;timestamp;P1;durP1;ratioP1;P2;durP2;ratioP2
40012;SDS011;37387;42.672;23.334;2022-08-20T00:00:18;8.5;;;4.7;;
40012;SDS011;37387;42.672;23.334;2022-08-20T00:01:17;5.9;;;5.1;;
40012;SDS011;37387;42.672;23.334;2022-08-20T00:02:18;8.5;;;4.6;;
40012;SDS011;37387;42.672;23.334;2022-08-20T00:03:19;8.5;;;5.0;;
40012;SDS011;37387;42.672;23.334;2022-08-20T00:04:18;7.0;;;5.1;;
40012;SDS011;37387;42.672;23.334;2022-08-20T00:05:19;6.8;;;4.6;;
40012;SDS011;37387;42.672;23.334;2022-08-20T00:07:18;7.7;;;5.2;;
40012;SDS011;37387;42.672;23.334;2022-08-20T00:08:18;7.4;;;4.9;;
40012;SDS011;37387;42.672;23.334;2022-08-20T00:09:19;7.4;;;5.3;;
40012;SDS011;37387;42.672;23.334;2022-08-20T00:10:19;8.3;;;5.0;;
40012;SDS011;37387;42.672;23.334;2022-08-20T00:11:21;6.5;;;4.8;;
40012;SDS011;37387;42.672;23.334;2022-08-20T00:13:21;6.0;;;4.9;;
40012;SDS011;37387;42.672;23.334;2022-08-20T00:14:19;8.7;;;5.2;;
40012;SDS011;37387;42.672;23.334;2022-08-20T00:15:22;8.7;;;5.0;;
40012;SDS011;37387;42.672;23.334;2022-08-20T00:17:20;6.3;;;5.1;;
40012;SDS011;37387;42.672;23.334;2022-08-20T00:18:20;6.6;;;5.0;;
40012;SDS011;37387;42.672;23.334;2022-08-20T00:19:20;8.8;;;5.1;;
40012;SDS011;37387;42.672;23.334;2022-08-20T00:20:21;11.0;;;5.4;;
40012;SDS011;37387;42.672;23.334;2022-08-20T00:21:20;8.0;;;5.5;;
40012;SDS011;37387;42.672;23.334;2022-08-20T00:22:20;7.6;;;5.0;;
40012;SDS011;37387;42.672;23.334;2022-08-20T00:23:21;7.6;;;4.9;;
40012;SDS011;37387;42.672;23.334;2022-08-20T00:24:21;7.3;;;4.8;;
40012;SDS011;37387;42.672;23.334;2022-08-20T00:25:21;8.4;;;5.2;;
40012;SDS011;37387;42.672;23.334;2022-08-20T00:26:21;8.4;;;4.9;;
40012;SDS011;37387;42.672;23.334;2022-08-20T00:27:21;8.0;;;4.7;;
40012;SDS011;37387;42.672;23.334;2022-08-20T00:28:21;8.0;;;4.9;;
40012;SDS011;37387;42.672;23.334;2022-08-20T00:29:21;6.9;;;4.7;;
40012;SDS011;37387;42.672;23.334;2022-08-20T00:30:22;6.9;;;5.4;;
40012;SDS011;37387;42.672;23.334;2022-08-20T00:31:22;9.2;;;4.8;;
40012;SDS011;37387;42.672;23.334;2022-08-20T00:32:22;7.7;;;4.9;;
40012;SDS011;37387;42.672;23.334;2022-08-20T00:34:22;6.8;;;5.3;;
40012;SDS011;37387;42.672;23.334;2022-08-20T00:35:23;10.4;;;5.0;;
40012;SDS011;37387;42.672;23.334;2022-08-20T00:36:22;9.0;;;5.3;;
40012;SDS011;37387;42.672;23.334;2022-08-20T00:37:23;6.6;;;5.2;;
40012;SDS011;37387;42.672;23.334;2022-08-20T00:38:23;6.6;;;4.7;;
40012;SDS011;37387;42.672;23.334;2022-08-20T00:39:23;6.8;;;5.2;;
40012;SDS011;37387;42.672;23.334;2022-08-20T00:40:24;6.8;;;5.0;;
40012;SDS011;37387;42.672;23.334;2022-08-20T00:42:23;7.1;;;4.6;;
40012;SDS011;37387;42.672;23.334;2022-08-20T00:43:28;7.1;;;5.1;;
40012;SDS011;37387;42.672;23.334;2022-08-20T00:44:24;9.8;;;4.9;;
40012;SDS011;37387;42.672;23.334;2022-08-20T00:45:25;6.2;;;5.0;;
40012;SDS011;37387;42.672;23.334;2022-08-20T00:46:24;6.2;;;5.1;;
40012;SDS011;37387;42.672;23.334;2022-08-20T00:47:24;8.1;;;5.3;;
40012;SDS011;37387;42.672;23.334;2022-08-20T00:48:25;7.8;;;5.4;;
40012;SDS011;37387;42.672;23.334;2022-08-20T00:50:26;6.5;;;4.8;;
40012;SDS011;37387;42.672;23.334;2022-08-20T00:51:27;6.5;;;5.2;;
40012;SDS011;37387;42.672;23.334;2022-08-20T00:52:25;7.4;;;4.8;;
40012;SDS011;37387;42.672;23.334;2022-08-20T00:53:25;7.4;;;5.0;;
40012;SDS011;37387;42.672;23.334;2022-08-20T00:54:26;7.1;;;5.1;;
40012;SDS011;37387;42.672;23.334;2022-08-20T00:55:25;8.3;;;5.0;;
40012;SDS011;37387;42.672;23.334;2022-08-20T00:56:25;10.8;;;5.5;;
40012;SDS011;37387;42.672;23.334;2022-08-20T00:57:27;10.8;;;5.1;;
40012;SDS011;37387;42.672;23.334;2022-08-20T00:59:27;6.6;;;4.8;;
40012;SDS011;37387;42.672;23.334;2022-08-20T01:00:28;6.9;;;5.3;;
40012;SDS011;37387;42.672;23.334;2022-08-20T01:01:26;6.9;;;4.9;;
40012;SDS011;37387;42.672;23.334;2022-08-20T01:02:26;6.8;;;5.2;;
40012;SDS011;37387;42.672;23.334;2022-08-20T01:03:26;8.9;;;5.1;;
40012;SDS011;37387;42.672;23.334;2022-08-20T01:04:28;8.9;;;5.6;;
40012;SDS011;37387;42.672;23.334;2022-08-20T01:05:27;8.4;;;5.0;;
40012;SDS011;37387;42.672;23.334;2022-08-20T01:06:27;7.4;;;5.2;;
40012;SDS011;37387;42.672;23.334;2022-08-20T01:07:27;7.9;;;5.5;;
40012;SDS011;37387;42.672;23.334;2022-08-20T01:08:27;8.8;;;5.3;;
40012;SDS011;37387;42.672;23.334;2022-08-20T01:09:27;8.4;;;5.1;;
40012;SDS011;37387;42.672;23.334;2022-08-20T01:10:28;8.4;;;5.7;;
40012;SDS011;37387;42.672;23.334;2022-08-20T01:11:27;8.5;;;5.5;;
40012;SDS011;37387;42.672;23.334;2022-08-20T01:12:28;8.2;;;5.2;;
40012;SDS011;37387;42.672;23.334;2022-08-20T01:13:27;8.0;;;5.5;;
40012;SDS011;37387;42.672;23.334;2022-08-20T01:15:28;9.0;;;5.4;;
40012;SDS011;37387;42.672;23.334;2022-08-20T01:16:28;8.2;;;5.3;;
40012;SDS011;37387;42.672;23.334;2022-08-20T01:17:28;6.6;;;5.7;;
40012;SDS011;37387;42.672;23.334;2022-08-20T01:18:28;9.2;;;5.4;;
40012;SDS011;37387;42.672;23.334;2022-08-20T01:20:30;8.8;;;5.2;;
40012;SDS011;37387;42.672;23.334;2022-08-20T01:22:31;7.7;;;5.4;;
40012;SDS011;37387;42.672;23.334;2022-08-20T01:23:31;8.2;;;5.5;;
40012;SDS011;37387;42.672;23.334;2022-08-20T01:24:31;7.6;;;5.8;;
40012;SDS011;37387;42.672;23.334;2022-08-20T01:26:30;8.3;;;5.5;;
40012;SDS011;37387;42.672;23.334;2022-08-20T01:27:29;8.8;;;5.3;;
40012;SDS011;37387;42.672;23.334;2022-08-20T01:28:31;9.0;;;5.5;;
40012;SDS011;37387;42.672;23.334;2022-08-20T01:29:31;9.5;;;5.4;;
40012;SDS011;37387;42.672;23.334;2022-08-20T01:30:30;7.9;;;5.8;;
40012;SDS011;37387;42.672;23.334;2022-08-20T01:31:30;8.7;;;5.7;;
40012;SDS011;37387;42.672;23.334;2022-08-20T01:32:30;9.6;;;5.0;;
40012;SDS011;37387;42.672;23.334;2022-08-20T01:33:30;8.0;;;5.1;;
40012;SDS011;37387;42.672;23.334;2022-08-20T01:34:30;7.4;;;5.2;;
40012;SDS011;37387;42.672;23.334;2022-08-20T01:35:34;9.7;;;5.5;;
40012;SDS011;37387;42.672;23.334;2022-08-20T01:36:33;8.0;;;5.2;;
40012;SDS011;37387;42.672;23.334;2022-08-20T01:37:31;8.0;;;5.4;;
40012;SDS011;37387;42.672;23.334;2022-08-20T01:38:31;8.2;;;5.3;;
40012;SDS011;37387;42.672;23.334;2022-08-20T01:39:32;8.0;;;5.1;;
40012;SDS011;37387;42.672;23.334;2022-08-20T01:40:38;8.5;;;5.3;;
40012;SDS011;37387;42.672;23.334;2022-08-20T01:42:32;7.0;;;5.7;;
40012;SDS011;37387;42.672;23.334;2022-08-20T01:43:31;9.1;;;5.2;;
40012;SDS011;37387;42.672;23.334;2022-08-20T01:45:32;10.7;;;6.0;;
40012;SDS011;37387;42.672;23.334;2022-08-20T01:47:32;9.7;;;5.5;;
40012;SDS011;37387;42.672;23.334;2022-08-20T01:49:32;11.3;;;5.7;;
40012;SDS011;37387;42.672;23.334;2022-08-20T01:50:32;8.3;;;5.3;;
40012;SDS011;37387;42.672;23.334;2022-08-20T01:52:35;7.5;;;5.4;;
40012;SDS011;37387;42.672;23.334;2022-08-20T01:54:33;8.4;;;5.2;;
40012;SDS011;37387;42.672;23.334;2022-08-20T01:55:33;8.4;;;5.6;;
40012;SDS011;37387;42.672;23.334;2022-08-20T01:56:34;11.0;;;5.7;;
40012;SDS011;37387;42.672;23.334;2022-08-20T01:57:34;7.7;;;4.8;;
40012;SDS011;37387;42.672;23.334;2022-08-20T01:58:34;8.3;;;5.2;;
40012;SDS011;37387;42.672;23.334;2022-08-20T01:59:33;8.0;;;5.4;;
40012;SDS011;37387;42.672;23.334;2022-08-20T02:00:34;10.6;;;6.1;;
40012;SDS011;37387;42.672;23.334;2022-08-20T02:01:35;8.1;;;5.3;;
40012;SDS011;37387;42.672;23.334;2022-08-20T02:02:34;8.1;;;5.9;;
40012;SDS011;37387;42.672;23.334;2022-08-20T02:03:34;10.0;;;5.6;;
40012;SDS011;37387;42.672;23.334;2022-08-20T02:05:34;8.9;;;5.3;;
40012;SDS011;37387;42.672;23.334;2022-08-20T02:08:34;8.9;;;5.7;;
40012;SDS011;37387;42.672;23.334;2022-08-20T02:09:36;8.6;;;5.3;;
40012;SDS011;37387;42.672;23.334;2022-08-20T02:10:35;7.6;;;5.2;;
40012;SDS011;37387;42.672;23.334;2022-08-20T02:11:35;7.6;;;5.4;;
40012;SDS011;37387;42.672;23.334;2022-08-20T02:12:35;8.0;;;5.6;;
40012;SDS011;37387;42.672;23.334;2022-08-20T02:13:35;7.9;;;5.4;;
40012;SDS011;37387;42.672;23.334;2022-08-20T02:14:38;8.7;;;6.0;;
40012;SDS011;37387;42.672;23.334;2022-08-20T02:15:36;10.2;;;5.5;;
40012;SDS011;37387;42.672;23.334;2022-08-20T02:16:36;10.2;;;5.3;;
40012;SDS011;37387;42.672;23.334;2022-08-20T02:18:36;8.2;;;5.4;;
40012;SDS011;37387;42.672;23.334;2022-08-20T02:19:37;8.6;;;5.8;;
40012;SDS011;37387;42.672;23.334;2022-08-20T02:20:36;7.0;;;5.2;;
40012;SDS011;37387;42.672;23.334;2022-08-20T02:21:37;8.2;;;5.3;;
40012;SDS011;37387;42.672;23.334;2022-08-20T02:23:36;8.8;;;5.4;;
40012;SDS011;37387;42.672;23.334;2022-08-20T02:25:37;9.3;;;5.5;;
40012;SDS011;37387;42.672;23.334;2022-08-20T02:26:37;9.8;;;5.9;;
40012;SDS011;37387;42.672;23.334;2022-08-20T02:27:38;7.9;;;5.5;;
40012;SDS011;37387;42.672;23.334;2022-08-20T02:28:37;8.1;;;5.8;;
40012;SDS011;37387;42.672;23.334;2022-08-20T02:29:37;8.1;;;5.6;;
40012;SDS011;37387;42.672;23.334;2022-08-20T02:30:38;10.5;;;5.5;;
40012;SDS011;37387;42.672;23.334;2022-08-20T02:31:37;10.5;;;6.3;;
40012;SDS011;37387;42.672;23.334;2022-08-20T02:32:37;11.5;;;5.9;;
40012;SDS011;37387;42.672;23.334;2022-08-20T02:33:37;9.1;;;5.6;;
40012;SDS011;37387;42.672;23.334;2022-08-20T02:34:37;6.3;;;5.8;;
40012;SDS011;37387;42.672;23.334;2022-08-20T02:35:38;7.7;;;5.5;;
40012;SDS011;37387;42.672;23.334;2022-08-20T02:36:38;7.8;;;5.7;;
40012;SDS011;37387;42.672;23.334;2022-08-20T02:37:38;7.4;;;5.8;;
40012;SDS011;37387;42.672;23.334;2022-08-20T02:38:38;7.5;;;5.5;;
40012;SDS011;37387;42.672;23.334;2022-08-20T02:39:38;9.2;;;5.7;;
40012;SDS011;37387;42.672;23.334;2022-08-20T02:40:39;7.8;;;5.2;;
40012;SDS011;37387;42.672;23.334;2022-08-20T02:41:38;7.8;;;5.8;;
40012;SDS011;37387;42.672;23.334;2022-08-20T02:42:38;8.4;;;5.3;;
40012;SDS011;37387;42.672;23.334;2022-08-20T02:43:38;8.4;;;5.9;;
40012;SDS011;37387;42.672;23.334;2022-08-20T02:44:39;8.5;;;5.2;;
40012;SDS011;37387;42.672;23.334;2022-08-20T02:45:39;8.5;;;5.7;;
40012;SDS011;37387;42.672;23.334;2022-08-20T02:46:39;8.6;;;5.5;;
40012;SDS011;37387;42.672;23.334;2022-08-20T02:47:39;7.5;;;5.8;;
40012;SDS011;37387;42.672;23.334;2022-08-20T02:48:39;11.6;;;5.5;;
40012;SDS011;37387;42.672;23.334;2022-08-20T02:49:39;9.0;;;5.4;;
40012;SDS011;37387;42.672;23.334;2022-08-20T02:50:41;9.0;;;5.7;;
40012;SDS011;37387;42.672;23.334;2022-08-20T02:51:39;9.1;;;5.6;;
40012;SDS011;37387;42.672;23.334;2022-08-20T02:52:40;9.1;;;5.5;;
40012;SDS011;37387;42.672;23.334;2022-08-20T02:53:40;8.0;;;5.8;;
40012;SDS011;37387;42.672;23.334;2022-08-20T02:54:40;8.9;;;5.5;;
40012;SDS011;37387;42.672;23.334;2022-08-20T02:55:40;9.7;;;5.0;;
40012;SDS011;37387;42.672;23.334;2022-08-20T02:56:40;8.2;;;5.5;;
40012;SDS011;37387;42.672;23.334;2022-08-20T02:57:40;8.2;;;6.4;;
40012;SDS011;37387;42.672;23.334;2022-08-20T02:58:41;9.0;;;5.6;;
40012;SDS011;37387;42.672;23.334;2022-08-20T02:59:42;9.0;;;5.4;;
40012;SDS011;37387;42.672;23.334;2022-08-20T03:00:41;8.3;;;5.7;;
40012;SDS011;37387;42.672;23.334;2022-08-20T03:01:41;9.1;;;5.9;;
40012;SDS011;37387;42.672;23.334;2022-08-20T03:02:41;9.1;;;5.7;;
40012;SDS011;37387;42.672;23.334;2022-08-20T03:04:41;9.0;;;5.8;;
40012;SDS011;37387;42.672;23.334;2022-08-20T03:05:42;12.5;;;6.4;;
40012;SDS011;37387;42.672;23.334;2022-08-20T03:06:41;9.9;;;5.9;;
40012;SDS011;37387;42.672;23.334;2022-08-20T03:07:42;9.9;;;6.2;;
40012;SDS011;37387;42.672;23.334;2022-08-20T03:08:42;9.0;;;5.8;;
40012;SDS011;37387;42.672;23.334;2022-08-20T03:10:42;11.0;;;6.3;;
40012;SDS011;37387;42.672;23.334;2022-08-20T03:11:42;9.6;;;5.7;;
40012;SDS011;37387;42.672;23.334;2022-08-20T03:12:42;7.6;;;5.6;;
40012;SDS011;37387;42.672;23.334;2022-08-20T03:14:42;9.5;;;6.2;;
40012;SDS011;37387;42.672;23.334;2022-08-20T03:15:43;9.5;;;5.6;;
40012;SDS011;37387;42.672;23.334;2022-08-20T03:16:42;7.9;;;5.8;;
40012;SDS011;37387;42.672;23.334;2022-08-20T03:17:43;10.6;;;6.1;;
40012;SDS011;37387;42.672;23.334;2022-08-20T03:18:44;12.3;;;6.0;;
40012;SDS011;37387;42.672;23.334;2022-08-20T03:19:43;12.3;;;5.7;;
40012;SDS011;37387;42.672;23.334;2022-08-20T03:20:43;9.6;;;6.2;;
40012;SDS011;37387;42.672;23.334;2022-08-20T03:21:43;9.6;;;6.1;;
40012;SDS011;37387;42.672;23.334;2022-08-20T03:22:43;8.3;;;6.3;;
40012;SDS011;37387;42.672;23.334;2022-08-20T03:23:43;11.3;;;6.2;;
40012;SDS011;37387;42.672;23.334;2022-08-20T03:24:43;10.8;;;6.0;;
40012;SDS011;37387;42.672;23.334;2022-08-20T03:25:44;8.6;;;5.8;;
40012;SDS011;37387;42.672;23.334;2022-08-20T03:26:43;11.4;;;5.6;;
40012;SDS011;37387;42.672;23.334;2022-08-20T03:27:44;8.6;;;6.2;;
40012;SDS011;37387;42.672;23.334;2022-08-20T03:28:44;9.3;;;6.3;;
40012;SDS011;37387;42.672;23.334;2022-08-20T03:29:44;9.3;;;5.9;;
40012;SDS011;37387;42.672;23.334;2022-08-20T03:30:44;9.1;;;6.2;;
40012;SDS011;37387;42.672;23.334;2022-08-20T03:32:44;9.0;;;6.3;;
40012;SDS011;37387;42.672;23.334;2022-08-20T03:33:44;8.4;;;6.4;;
40012;SDS011;37387;42.672;23.334;2022-08-20T03:34:44;10.6;;;6.5;;
40012;SDS011;37387;42.672;23.334;2022-08-20T03:35:45;10.6;;;6.2;;
40012;SDS011;37387;42.672;23.334;2022-08-20T03:36:45;12.8;;;6.6;;
40012;SDS011;37387;42.672;23.334;2022-08-20T03:37:45;10.3;;;5.9;;
40012;SDS011;37387;42.672;23.334;2022-08-20T03:38:45;9.5;;;6.1;;
40012;SDS011;37387;42.672;23.334;2022-08-20T03:39:45;9.5;;;6.4;;
40012;SDS011;37387;42.672;23.334;2022-08-20T03:40:45;12.8;;;6.1;;
40012;SDS011;37387;42.672;23.334;2022-08-20T03:41:45;8.2;;;6.6;;
40012;SDS011;37387;42.672;23.334;2022-08-20T03:42:45;10.1;;;6.3;;
40012;SDS011;37387;42.672;23.334;2022-08-20T03:43:45;8.4;;;6.0;;
40012;SDS011;37387;42.672;23.334;2022-08-20T03:44:46;8.4;;;6.4;;
40012;SDS011;37387;42.672;23.334;2022-08-20T03:45:46;9.0;;;6.0;;
40012;SDS011;37387;42.672;23.334;2022-08-20T03:46:46;9.2;;;6.4;;
40012;SDS011;37387;42.672;23.334;2022-08-20T03:48:46;8.4;;;6.3;;
40012;SDS011;37387;42.672;23.334;2022-08-20T03:49:46;8.8;;;5.7;;
40012;SDS011;37387;42.672;23.334;2022-08-20T03:50:47;8.8;;;6.6;;
40012;SDS011;37387;42.672;23.334;2022-08-20T03:51:46;8.6;;;6.3;;
40012;SDS011;37387;42.672;23.334;2022-08-20T03:52:46;8.3;;;5.8;;
40012;SDS011;37387;42.672;23.334;2022-08-20T03:53:46;7.4;;;5.9;;
40012;SDS011;37387;42.672;23.334;2022-08-20T03:54:46;7.4;;;6.1;;
40012;SDS011;37387;42.672;23.334;2022-08-20T03:55:47;7.8;;;6.0;;
40012;SDS011;37387;42.672;23.334;2022-08-20T03:56:47;8.3;;;6.6;;
40012;SDS011;37387;42.672;23.334;2022-08-20T03:57:48;7.6;;;5.4;;
40012;SDS011;37387;42.672;23.334;2022-08-20T03:58:47;7.6;;;6.6;;
40012;SDS011;37387;42.672;23.334;2022-08-20T03:59:47;9.3;;;6.3;;
40012;SDS011;37387;42.672;23.334;2022-08-20T04:00:48;12.6;;;6.4;;
40012;SDS011;37387;42.672;23.334;2022-08-20T04:01:47;10.7;;;6.0;;
40012;SDS011;37387;42.672;23.334;2022-08-20T04:02:47;8.8;;;6.3;;
40012;SDS011;37387;42.672;23.334;2022-08-20T04:03:48;8.3;;;5.8;;
40012;SDS011;37387;42.672;23.334;2022-08-20T04:04:48;8.6;;;6.3;;
40012;SDS011;37387;42.672;23.334;2022-08-20T04:05:48;9.6;;;6.1;;
40012;SDS011;37387;42.672;23.334;2022-08-20T04:06:48;9.4;;;6.7;;
40012;SDS011;37387;42.672;23.334;2022-08-20T04:08:48;11.3;;;6.4;;
40012;SDS011;37387;42.672;23.334;2022-08-20T04:10:49;12.0;;;7.1;;
40012;SDS011;37387;42.672;23.334;2022-08-20T04:11:48;12.0;;;6.6;;
40012;SDS011;37387;42.672;23.334;2022-08-20T04:12:49;10.5;;;6.4;;
40012;SDS011;37387;42.672;23.334;2022-08-20T04:14:49;10.5;;;6.3;;
40012;SDS011;37387;42.672;23.334;2022-08-20T04:15:49;10.4;;;6.5;;
40012;SDS011;37387;42.672;23.334;2022-08-20T04:16:49;10.4;;;6.7;;
40012;SDS011;37387;42.672;23.334;2022-08-20T04:17:49;9.8;;;6.2;;
40012;SDS011;37387;42.672;23.334;2022-08-20T04:18:49;11.3;;;6.4;;
40012;SDS011;37387;42.672;23.334;2022-08-20T04:19:49;10.1;;;5.6;;
40012;SDS011;37387;42.672;23.334;2022-08-20T04:20:50;9.1;;;6.3;;
40012;SDS011;37387;42.672;23.334;2022-08-20T04:21:50;10.4;;;6.0;;
40012;SDS011;37387;42.672;23.334;2022-08-20T04:22:50;10.4;;;6.3;;
40012;SDS011;37387;42.672;23.334;2022-08-20T04:23:50;9.7;;;6.2;;
40012;SDS011;37387;42.672;23.334;2022-08-20T04:24:50;9.7;;;6.1;;
40012;SDS011;37387;42.672;23.334;2022-08-20T04:25:50;10.0;;;6.4;;
40012;SDS011;37387;42.672;23.334;2022-08-20T04:26:50;8.7;;;5.8;;
40012;SDS011;37387;42.672;23.334;2022-08-20T04:27:50;7.3;;;5.9;;
40012;SDS011;37387;42.672;23.334;2022-08-20T04:28:50;10.8;;;5.6;;
40012;SDS011;37387;42.672;23.334;2022-08-20T04:29:51;7.4;;;6.0;;
40012;SDS011;37387;42.672;23.334;2022-08-20T04:30:51;8.5;;;5.7;;
40012;SDS011;37387;42.672;23.334;2022-08-20T04:31:51;9.3;;;6.2;;
40012;SDS011;37387;42.672;23.334;2022-08-20T04:32:53;11.1;;;6.4;;
40012;SDS011;37387;42.672;23.334;2022-08-20T04:33:51;11.1;;;6.3;;
40012;SDS011;37387;42.672;23.334;2022-08-20T04:34:51;9.3;;;6.4;;
40012;SDS011;37387;42.672;23.334;2022-08-20T04:35:52;9.3;;;6.0;;
40012;SDS011;37387;42.672;23.334;2022-08-20T04:36:52;10.8;;;6.1;;
40012;SDS011;37387;42.672;23.334;2022-08-20T04:39:52;12.5;;;6.6;;
40012;SDS011;37387;42.672;23.334;2022-08-20T04:40:52;7.4;;;5.6;;
40012;SDS011;37387;42.672;23.334;2022-08-20T04:41:52;12.3;;;6.4;;
40012;SDS011;37387;42.672;23.334;2022-08-20T04:42:52;9.8;;;6.1;;
40012;SDS011;37387;42.672;23.334;2022-08-20T04:43:53;11.6;;;6.6;;
40012;SDS011;37387;42.672;23.334;2022-08-20T04:44:53;11.6;;;6.5;;
40012;SDS011;37387;42.672;23.334;2022-08-20T04:45:53;10.8;;;6.3;;
40012;SDS011;37387;42.672;23.334;2022-08-20T04:47:53;11.2;;;5.4;;
40012;SDS011;37387;42.672;23.334;2022-08-20T04:48:54;11.5;;;6.7;;
40012;SDS011;37387;42.672;23.334;2022-08-20T04:49:54;11.5;;;6.0;;
40012;SDS011;37387;42.672;23.334;2022-08-20T04:50:54;9.2;;;5.9;;
40012;SDS011;37387;42.672;23.334;2022-08-20T04:51:54;9.1;;;6.2;;
40012;SDS011;37387;42.672;23.334;2022-08-20T04:52:54;9.1;;;5.5;;
40012;SDS011;37387;42.672;23.334;2022-08-20T04:53:55;8.7;;;5.8;;
40012;SDS011;37387;42.672;23.334;2022-08-20T04:54:54;10.5;;;5.9;;
40012;SDS011;37387;42.672;23.334;2022-08-20T04:55:56;10.5;;;6.1;;
40012;SDS011;37387;42.672;23.334;2022-08-20T04:56:55;9.4;;;6.2;;
40012;SDS011;37387;42.672;23.334;2022-08-20T04:57:55;11.9;;;6.0;;
40012;SDS011;37387;42.672;23.334;2022-08-20T04:59:55;12.2;;;6.2;;
40012;SDS011;37387;42.672;23.334;2022-08-20T05:00:57;9.0;;;5.7;;
40012;SDS011;37387;42.672;23.334;2022-08-20T05:01:56;9.0;;;6.2;;
40012;SDS011;37387;42.672;23.334;2022-08-20T05:02:56;11.6;;;6.0;;
40012;SDS011;37387;42.672;23.334;2022-08-20T05:03:56;11.4;;;6.1;;
40012;SDS011;37387;42.672;23.334;2022-08-20T05:05:57;11.1;;;6.3;;
40012;SDS011;37387;42.672;23.334;2022-08-20T05:06:57;10.2;;;6.8;;
40012;SDS011;37387;42.672;23.334;2022-08-20T05:07:57;9.0;;;6.2;;
40012;SDS011;37387;42.672;23.334;2022-08-20T05:08:58;9.0;;;6.4;;
40012;SDS011;37387;42.672;23.334;2022-08-20T05:09:57;9.8;;;6.1;;
40012;SDS011;37387;42.672;23.334;2022-08-20T05:10:58;8.6;;;6.0;;
40012;SDS011;37387;42.672;23.334;2022-08-20T05:11:58;8.6;;;6.3;;
40012;SDS011;37387;42.672;23.334;2022-08-20T05:12:58;10.7;;;6.6;;
40012;SDS011;37387;42.672;23.334;2022-08-20T05:13:58;9.0;;;6.4;;
40012;SDS011;37387;42.672;23.334;2022-08-20T05:14:58;11.3;;;6.2;;
40012;SDS011;37387;42.672;23.334;2022-08-20T05:15:59;10.0;;;5.9;;
40012;SDS011;37387;42.672;23.334;2022-08-20T05:17:00;10.0;;;5.6;;
40012;SDS011;37387;42.672;23.334;2022-08-20T05:17:59;9.1;;;6.1;;
40012;SDS011;37387;42.672;23.334;2022-08-20T05:19:59;8.9;;;6.2;;
40012;SDS011;37387;42.672;23.334;2022-08-20T05:21:00;8.9;;;5.9;;
40012;SDS011;37387;42.672;23.334;2022-08-20T05:22:00;10.6;;;5.7;;
40012;SDS011;37387;42.672;23.334;2022-08-20T05:23:00;10.5;;;6.4;;
40012;SDS011;37387;42.672;23.334;2022-08-20T05:24:00;10.5;;;6.3;;
40012;SDS011;37387;42.672;23.334;2022-08-20T05:25:00;13.1;;;6.0;;
40012;SDS011;37387;42.672;23.334;2022-08-20T05:27:01;9.0;;;6.1;;
40012;SDS011;37387;42.672;23.334;2022-08-20T05:28:02;9.0;;;6.3;;
40012;SDS011;37387;42.672;23.334;2022-08-20T05:29:01;9.8;;;6.2;;
40012;SDS011;37387;42.672;23.334;2022-08-20T05:30:03;9.8;;;5.8;;
40012;SDS011;37387;42.672;23.334;2022-08-20T05:32:02;8.8;;;6.2;;
40012;SDS011;37387;42.672;23.334;2022-08-20T05:33:03;9.4;;;5.6;;
40012;SDS011;37387;42.672;23.334;2022-08-20T05:34:03;7.7;;;5.7;;
40012;SDS011;37387;42.672;23.334;2022-08-20T05:35:03;10.4;;;5.8;;
40012;SDS011;37387;42.672;23.334;2022-08-20T05:36:03;10.2;;;5.9;;
40012;SDS011;37387;42.672;23.334;2022-08-20T05:37:03;10.2;;;5.6;;
40012;SDS011;37387;42.672;23.334;2022-08-20T05:38:04;10.2;;;6.2;;
40012;SDS011;37387;42.672;23.334;2022-08-20T05:39:04;11.3;;;6.6;;
40012;SDS011;37387;42.672;23.334;2022-08-20T05:40:07;10.8;;;6.9;;
40012;SDS011;37387;42.672;23.334;2022-08-20T05:41:04;10.7;;;5.8;;
40012;SDS011;37387;42.672;23.334;2022-08-20T05:43:05;8.9;;;5.6;;
40012;SDS011;37387;42.672;23.334;2022-08-20T05:44:05;10.9;;;5.8;;
40012;SDS011;37387;42.672;23.334;2022-08-20T05:45:05;10.9;;;5.9;;
40012;SDS011;37387;42.672;23.334;2022-08-20T05:46:05;8.1;;;5.7;;
40012;SDS011;37387;42.672;23.334;2022-08-20T05:47:05;10.0;;;6.1;;
40012;SDS011;37387;42.672;23.334;2022-08-20T05:48:06;10.0;;;6.4;;
40012;SDS011;37387;42.672;23.334;2022-08-20T05:49:06;9.0;;;5.8;;
40012;SDS011;37387;42.672;23.334;2022-08-20T05:50:07;8.9;;;5.5;;
40012;SDS011;37387;42.672;23.334;2022-08-20T05:51:06;8.9;;;5.8;;
40012;SDS011;37387;42.672;23.334;2022-08-20T05:52:07;8.9;;;6.0;;
40012;SDS011;37387;42.672;23.334;2022-08-20T05:53:07;7.2;;;5.4;;
40012;SDS011;37387;42.672;23.334;2022-08-20T05:54:07;7.2;;;6.0;;
40012;SDS011;37387;42.672;23.334;2022-08-20T05:55:09;7.7;;;5.8;;
40012;SDS011;37387;42.672;23.334;2022-08-20T05:56:08;8.1;;;5.9;;
40012;SDS011;37387;42.672;23.334;2022-08-20T05:57:08;10.0;;;6.2;;
40012;SDS011;37387;42.672;23.334;2022-08-20T05:58:13;10.0;;;5.8;;
40012;SDS011;37387;42.672;23.334;2022-08-20T05:59:09;6.7;;;6.0;;
40012;SDS011;37387;42.672;23.334;2022-08-20T06:00:10;10.2;;;5.9;;
40012;SDS011;37387;42.672;23.334;2022-08-20T06:01:09;7.5;;;5.8;;
40012;SDS011;37387;42.672;23.334;2022-08-20T06:02:09;7.1;;;5.5;;
40012;SDS011;37387;42.672;23.334;2022-08-20T06:03:09;7.8;;;5.7;;
40012;SDS011;37387;42.672;23.334;2022-08-20T06:04:10;9.5;;;5.8;;
40012;SDS011;37387;42.672;23.334;2022-08-20T06:05:10;9.5;;;6.0;;
40012;SDS011;37387;42.672;23.334;2022-08-20T06:06:10;8.8;;;6.5;;
40012;SDS011;37387;42.672;23.334;2022-08-20T06:07:10;7.0;;;5.6;;
40012;SDS011;37387;42.672;23.334;2022-08-20T06:08:11;7.0;;;5.7;;
40012;SDS011;37387;42.672;23.334;2022-08-20T06:12:12;8.4;;;5.6;;
40012;SDS011;37387;42.672;23.334;2022-08-20T06:13:12;9.2;;;5.8;;
40012;SDS011;37387;42.672;23.334;2022-08-20T06:14:12;9.0;;;5.9;;
40012;SDS011;37387;42.672;23.334;2022-08-20T06:15:13;8.9;;;6.0;;
40012;SDS011;37387;42.672;23.334;2022-08-20T06:18:13;8.9;;;6.3;;
40012;SDS011;37387;42.672;23.334;2022-08-20T06:19:14;12.7;;;8.4;;
40012;SDS011;37387;42.672;23.334;2022-08-20T06:20:14;12.7;;;6.0;;
40012;SDS011;37387;42.672;23.334;2022-08-20T06:21:14;9.3;;;6.2;;
40012;SDS011;37387;42.672;23.334;2022-08-20T06:23:15;10.0;;;6.3;;
40012;SDS011;37387;42.672;23.334;2022-08-20T06:24:15;10.3;;;6.0;;
40012;SDS011;37387;42.672;23.334;2022-08-20T06:26:15;8.6;;;6.2;;
40012;SDS011;37387;42.672;23.334;2022-08-20T06:27:16;8.6;;;6.1;;
40012;SDS011;37387;42.672;23.334;2022-08-20T06:29:16;9.9;;;6.8;;
40012;SDS011;37387;42.672;23.334;2022-08-20T06:30:16;9.9;;;6.3;;
40012;SDS011;37387;42.672;23.334;2022-08-20T06:31:17;10.6;;;6.0;;
40012;SDS011;37387;42.672;23.334;2022-08-20T06:32:17;8.5;;;6.7;;
40012;SDS011;37387;42.672;23.334;2022-08-20T06:33:17;10.7;;;6.4;;
40012;SDS011;37387;42.672;23.334;2022-08-20T06:34:18;10.7;;;6.3;;
40012;SDS011;37387;42.672;23.334;2022-08-20T06:36:18;8.3;;;6.1;;
40012;SDS011;37387;42.672;23.334;2022-08-20T06:37:20;8.3;;;6.2;;
40012;SDS011;37387;42.672;23.334;2022-08-20T06:38:19;9.3;;;6.0;;
40012;SDS011;37387;42.672;23.334;2022-08-20T06:39:19;7.3;;;6.6;;
40012;SDS011;37387;42.672;23.334;2022-08-20T06:40:23;10.4;;;6.1;;
40012;SDS011;37387;42.672;23.334;2022-08-20T06:41:19;9.9;;;5.8;;
40012;SDS011;37387;42.672;23.334;2022-08-20T06:43:20;8.9;;;5.9;;
40012;SDS011;37387;42.672;23.334;2022-08-20T06:44:20;7.5;;;5.8;;
40012;SDS011;37387;42.672;23.334;2022-08-20T06:45:21;9.7;;;6.4;;
40012;SDS011;37387;42.672;23.334;2022-08-20T06:46:21;9.7;;;5.8;;
40012;SDS011;37387;42.672;23.334;2022-08-20T06:47:21;7.3;;;6.2;;
40012;SDS011;37387;42.672;23.334;2022-08-20T06:48:21;10.9;;;6.3;;
40012;SDS011;37387;42.672;23.334;2022-08-20T06:49:22;10.9;;;6.0;;
40012;SDS011;37387;42.672;23.334;2022-08-20T06:50:24;10.3;;;6.2;;
40012;SDS011;37387;42.672;23.334;2022-08-20T06:51:22;10.4;;;6.0;;
40012;SDS011;37387;42.672;23.334;2022-08-20T06:55:23;10.2;;;6.2;;
40012;SDS011;37387;42.672;23.334;2022-08-20T06:56:24;10.2;;;6.1;;
40012;SDS011;37387;42.672;23.334;2022-08-20T06:58:25;8.3;;;6.0;;
40012;SDS011;37387;42.672;23.334;2022-08-20T06:59:25;7.8;;;5.6;;
40012;SDS011;37387;42.672;23.334;2022-08-20T07:00:25;10.0;;;5.9;;